Time;durP1;ratioP1;P1;durP2;ratioP2;P2;SDS_P1;SDS_P2;PMS_P1;PMS_P2;Temp;Humidity;BMP_temperature;BMP_pressure;BME280_temperature;BME280_humidity;BME280_pressure;Samples;Min_cycle;Max_cycle;Signal;HPM_P1;HPM_P2
2021/11/21 00:00:44;;;;;;;4.88;4.38;;;18.20;58.20;;;;;;4980883;28;20030;-58
2021/11/21 00:03:10;;;;;;;4.78;4.15;;;18.20;58.10;;;;;;4982328;28;20027;-59
2021/11/21 00:05:40;;;;;;;6.03;4.57;;;18.20;58.10;;;;;;4979699;28;20049;-58
2021/11/21 00:08:06;;;;;;;4.93;4.47;;;18.20;58.10;;;;;;4996423;28;20026;-59
2021/11/21 00:10:33;;;;;;;5.38;4.43;;;18.20;58.00;;;;;;4981617;28;20030;-61
2021/11/21 00:12:59;;;;;;;4.97;4.10;;;18.20;58.00;;;;;;4981531;28;20138;-57
2021/11/21 00:15:25;;;;;;;4.47;4.07;;;18.20;58.00;;;;;;4980794;28;20121;-58
2021/11/21 00:17:50;;;;;;;5.38;4.18;;;18.20;57.90;;;;;;4981803;28;20041;-59
2021/11/21 00:20:16;;;;;;;5.88;4.03;;;18.20;57.90;;;;;;4981464;28;20439;-58
2021/11/21 00:22:43;;;;;;;5.28;4.40;;;18.20;57.80;;;;;;4982007;28;20057;-58
2021/11/21 00:25:09;;;;;;;4.53;4.13;;;18.20;57.80;;;;;;4980777;28;20074;-58
2021/11/21 00:27:34;;;;;;;7.22;4.57;;;18.20;57.80;;;;;;4981651;28;20050;-58
2021/11/21 00:30:00;;;;;;;4.53;4.07;;;18.20;57.80;;;;;;4981833;28;20027;-59
2021/11/21 00:32:25;;;;;;;4.85;4.20;;;18.20;57.80;;;;;;4982108;28;20096;-58
2021/11/21 00:34:51;;;;;;;4.72;4.32;;;18.20;57.80;;;;;;4981334;28;20039;-59
2021/11/21 00:37:16;;;;;;;5.03;4.25;;;18.20;57.80;;;;;;4982714;28;20279;-59
2021/11/21 00:39:42;;;;;;;4.60;4.20;;;18.20;57.80;;;;;;4981140;28;20027;-58
2021/11/21 00:42:08;;;;;;;5.07;4.53;;;18.20;57.80;;;;;;4981363;28;20019;-58
2021/11/21 00:44:33;;;;;;;4.82;4.43;;;18.20;57.70;;;;;;4980774;28;20030;-57
2021/11/21 00:46:58;;;;;;;5.10;4.60;;;18.20;57.70;;;;;;4982407;28;20092;-58
2021/11/21 00:49:24;;;;;;;5.82;4.78;;;18.20;57.70;;;;;;4981320;28;20118;-58
2021/11/21 00:51:50;;;;;;;4.70;4.10;;;18.20;57.70;;;;;;4978332;28;20108;-59
2021/11/21 00:54:25;;;;;;;4.80;4.30;;;18.20;57.70;;;;;;4981662;28;20377;-59
2021/11/21 00:56:51;;;;;;;5.22;4.47;;;18.20;57.70;;;;;;4977390;28;20046;-57
2021/11/21 00:59:20;;;;;;;5.35;4.07;;;18.20;57.60;;;;;;4996541;28;20023;-58
2021/11/21 01:01:49;;;;;;;6.70;4.47;;;18.20;57.60;;;;;;4982571;28;20855;-59
2021/11/21 01:04:15;;;;;;;4.75;4.35;;;18.20;57.60;;;;;;4982040;28;20041;-58
2021/11/21 01:06:41;;;;;;;5.75;4.10;;;18.20;57.70;;;;;;4980614;28;20026;-58
2021/11/21 01:09:06;;;;;;;3.80;3.50;;;18.20;57.70;;;;;;4981906;28;20038;-59
2021/11/21 01:11:31;;;;;;;4.40;4.00;;;18.20;57.70;;;;;;4982946;28;20027;-58
2021/11/21 01:13:57;;;;;;;4.57;4.18;;;18.20;57.70;;;;;;4982442;28;20030;-58
2021/11/21 01:16:22;;;;;;;4.80;4.40;;;18.20;57.80;;;;;;4980808;28;20034;-59
2021/11/21 01:18:48;;;;;;;4.60;4.18;;;18.10;57.70;;;;;;4981167;28;20027;-57
2021/11/21 01:21:13;;;;;;;5.05;4.55;;;18.10;57.70;;;;;;4981576;28;20041;-58
2021/11/21 01:23:39;;;;;;;4.72;4.28;;;18.10;57.80;;;;;;4981465;28;20049;-56
2021/11/21 01:26:04;;;;;;;5.22;4.72;;;18.10;57.80;;;;;;4979648;28;20046;-58
2021/11/21 01:28:30;;;;;;;4.43;4.03;;;18.10;57.80;;;;;;4981821;28;20082;-58
2021/11/21 01:30:55;;;;;;;5.10;4.70;;;18.10;57.80;;;;;;4979437;28;20281;-57
2021/11/21 01:33:22;;;;;;;4.53;4.13;;;18.10;57.80;;;;;;4981316;28;20078;-58
2021/11/21 01:35:47;;;;;;;4.65;4.20;;;18.10;57.90;;;;;;4964077;28;20201;-58
2021/11/21 01:38:13;;;;;;;5.70;4.28;;;18.00;57.80;;;;;;4981296;28;20575;-57
2021/11/21 01:40:38;;;;;;;4.72;4.07;;;18.10;57.90;;;;;;4979453;28;20034;-59
2021/11/21 01:43:04;;;;;;;4.90;4.50;;;18.00;57.90;;;;;;4980900;28;20034;-56
2021/11/21 01:45:31;;;;;;;6.60;4.55;;;18.00;57.90;;;;;;4981528;28;20647;-58
2021/11/21 01:47:57;;;;;;;4.78;4.07;;;18.00;57.90;;;;;;4980993;28;20041;-58
2021/11/21 01:50:32;;;;;;;4.47;4.07;;;17.90;57.90;;;;;;4980073;28;20035;-58
2021/11/21 01:52:57;;;;;;;4.32;3.92;;;18.00;57.90;;;;;;4981049;28;20026;-59
2021/11/21 01:55:24;;;;;;;4.90;4.47;;;17.90;57.90;;;;;;4980503;28;20067;-59
2021/11/21 01:57:49;;;;;;;5.10;4.60;;;17.90;57.90;;;;;;4996137;28;20110;-58
2021/11/21 02:00:15;;;;;;;4.93;4.53;;;18.00;58.00;;;;;;4980578;28;20034;-59
2021/11/21 02:02:41;;;;;;;5.78;4.07;;;17.90;57.90;;;;;;4981195;28;20934;-59
2021/11/21 02:05:07;;;;;;;4.75;4.35;;;17.90;57.90;;;;;;4980683;28;20604;-58
2021/11/21 02:07:33;;;;;;;4.22;3.83;;;17.90;58.00;;;;;;4996203;28;20088;-59
2021/11/21 02:09:58;;;;;;;4.22;3.85;;;17.90;58.00;;;;;;4954305;28;20022;-57
2021/11/21 02:12:24;;;;;;;4.95;4.55;;;17.90;58.00;;;;;;4979967;28;20385;-59
2021/11/21 02:14:49;;;;;;;4.20;3.75;;;17.90;58.00;;;;;;4964279;28;20062;-59
2021/11/21 02:17:15;;;;;;;4.38;3.97;;;17.90;58.00;;;;;;4981204;28;20443;-57
2021/11/21 02:19:40;;;;;;;3.65;3.35;;;17.90;58.10;;;;;;4980692;28;20049;-58
2021/11/21 02:22:06;;;;;;;3.95;3.58;;;17.90;58.10;;;;;;4980723;28;20042;-59
2021/11/21 02:24:31;;;;;;;3.95;3.65;;;17.90;58.10;;;;;;4986962;28;20037;-59
2021/11/21 02:26:57;;;;;;;4.68;4.28;;;17.90;58.00;;;;;;4963622;28;20039;-58
2021/11/21 02:29:22;;;;;;;4.28;3.97;;;18.00;57.90;;;;;;4981037;28;20061;-58
2021/11/21 02:31:48;;;;;;;4.05;3.75;;;18.10;57.80;;;;;;4981102;28;20057;-59
2021/11/21 02:34:13;;;;;;;4.35;3.95;;;18.10;57.60;;;;;;4981477;28;20038;-58
2021/11/21 02:36:43;;;;;;;4.60;4.20;;;18.20;57.60;;;;;;4982031;28;20050;-58
2021/11/21 02:39:10;;;;;;;4.18;3.42;;;18.20;57.40;;;;;;4996063;28;20030;-59
2021/11/21 02:41:35;;;;;;;4.07;3.70;;;18.20;57.40;;;;;;4980553;28;20096;-59
2021/11/21 02:44:01;;;;;;;4.20;3.80;;;18.20;57.40;;;;;;4981683;28;20034;-59
2021/11/21 02:46:30;;;;;;;4.00;3.60;;;18.30;57.40;;;;;;4963825;28;20034;-58
2021/11/21 02:48:55;;;;;;;3.83;3.53;;;18.30;57.40;;;;;;4980557;28;20036;-58
2021/11/21 02:51:22;;;;;;;3.95;3.55;;;18.30;57.40;;;;;;4981185;28;20026;-58
2021/11/21 02:53:47;;;;;;;3.40;3.10;;;18.30;57.40;;;;;;4983787;28;20137;-59
2021/11/21 02:56:14;;;;;;;3.58;3.20;;;18.30;57.30;;;;;;4983775;28;20034;-59
2021/11/21 02:58:40;;;;;;;4.53;3.65;;;18.30;57.40;;;;;;4983642;28;20141;-59
2021/11/21 03:01:23;;;;;;;3.75;3.45;;;18.30;57.40;;;;;;4984384;28;20535;-57
2021/11/21 03:03:49;;;;;;;3.53;3.22;;;18.30;57.40;;;;;;4983939;28;20042;-58
2021/11/21 03:06:14;;;;;;;3.90;3.60;;;18.40;57.40;;;;;;4984027;28;20038;-59
2021/11/21 03:08:40;;;;;;;3.90;3.60;;;18.30;57.40;;;;;;4983648;28;20026;-59
2021/11/21 03:11:31;;;;;;;3.78;3.47;;;18.40;57.40;;;;;;4984379;28;20089;-59
2021/11/21 03:13:57;;;;;;;3.85;3.55;;;18.30;57.40;;;;;;4990079;28;20384;-57
2021/11/21 03:16:23;;;;;;;4.97;4.40;;;18.30;57.40;;;;;;4983965;28;20042;-59
2021/11/21 03:18:48;;;;;;;3.88;3.58;;;18.30;57.40;;;;;;4983141;28;20558;-58
2021/11/21 03:21:14;;;;;;;3.83;3.53;;;18.30;57.40;;;;;;4998888;28;20073;-58
2021/11/21 03:23:40;;;;;;;4.43;4.03;;;18.30;57.40;;;;;;4984234;28;20845;-60
2021/11/21 03:26:05;;;;;;;4.72;4.20;;;18.30;57.90;;;;;;4983286;28;20042;-58
2021/11/21 03:28:31;;;;;;;4.53;3.80;;;18.30;57.20;;;;;;4984358;28;20507;-57
2021/11/21 03:30:56;;;;;;;4.18;3.83;;;18.40;57.20;;;;;;4983446;28;20037;-57
2021/11/21 03:33:22;;;;;;;4.13;3.83;;;18.30;57.10;;;;;;4983836;28;20030;-59
2021/11/21 03:35:47;;;;;;;4.22;3.92;;;18.40;57.20;;;;;;4984008;28;20034;-58
2021/11/21 03:38:13;;;;;;;4.05;3.75;;;18.30;57.00;;;;;;4999014;28;20060;-59
2021/11/21 03:40:39;;;;;;;4.50;4.10;;;18.30;57.00;;;;;;4983692;28;20023;-58
2021/11/21 03:43:04;;;;;;;4.22;3.83;;;18.40;57.10;;;;;;4983372;28;20113;-58
2021/11/21 03:45:31;;;;;;;4.75;4.35;;;18.30;57.10;;;;;;4977922;28;20034;-59
2021/11/21 03:47:56;;;;;;;4.85;3.90;;;18.30;57.00;;;;;;4966122;28;21102;-57
2021/11/21 03:50:22;;;;;;;4.30;3.90;;;18.30;57.00;;;;;;4983380;28;20133;-58
2021/11/21 03:52:47;;;;;;;4.55;4.15;;;18.30;57.00;;;;;;4977484;28;20150;-58
2021/11/21 03:55:14;;;;;;;4.72;4.32;;;18.30;57.00;;;;;;4977338;28;20065;-59
2021/11/21 03:57:40;;;;;;;4.00;3.63;;;18.20;56.90;;;;;;4983156;28;20030;-58
2021/11/21 04:00:08;;;;;;;4.30;3.90;;;18.30;57.00;;;;;;4983005;28;20026;-58
2021/11/21 04:02:33;;;;;;;5.25;4.55;;;18.20;56.90;;;;;;4983050;28;20037;-58
2021/11/21 04:04:59;;;;;;;4.63;4.22;;;18.20;56.90;;;;;;4983142;28;20026;-59
2021/11/21 04:07:24;;;;;;;4.55;4.15;;;18.20;56.90;;;;;;4982672;28;20866;-58
2021/11/21 04:09:50;;;;;;;5.13;3.95;;;18.20;56.90;;;;;;4981913;28;20512;-58
2021/11/21 04:12:15;;;;;;;4.57;4.18;;;18.20;56.90;;;;;;4982084;28;20045;-58
2021/11/21 04:14:42;;;;;;;4.05;3.65;;;18.20;56.90;;;;;;4982401;28;20030;-58
2021/11/21 04:17:08;;;;;;;5.65;4.00;;;18.20;57.00;;;;;;4982921;28;20065;-58
2021/11/21 04:19:33;;;;;;;4.55;3.92;;;18.10;56.90;;;;;;4982479;28;20480;-58
2021/11/21 04:21:59;;;;;;;5.15;4.47;;;18.10;56.90;;;;;;4982892;28;20025;-58
2021/11/21 04:24:24;;;;;;;4.07;3.75;;;18.10;57.00;;;;;;4983096;28;20324;-58
2021/11/21 04:26:50;;;;;;;4.53;4.13;;;18.10;57.00;;;;;;5012211;23;20053;-57
2021/11/21 04:29:15;;;;;;;4.60;4.20;;;18.10;57.00;;;;;;5019623;28;20034;-58
2021/11/21 04:31:41;;;;;;;4.38;4.00;;;18.10;57.10;;;;;;5018943;28;20405;-57
2021/11/21 04:34:06;;;;;;;4.38;3.97;;;18.00;57.00;;;;;;5020117;28;20658;-56
2021/11/21 04:36:32;;;;;;;4.97;4.32;;;18.00;57.10;;;;;;4998273;28;20029;-57
2021/11/21 04:38:58;;;;;;;4.55;4.15;;;18.00;57.10;;;;;;5001538;28;20029;-55
2021/11/21 04:41:23;;;;;;;4.43;3.75;;;18.00;57.10;;;;;;5018885;28;20034;-57
2021/11/21 04:43:49;;;;;;;4.57;4.20;;;18.00;57.20;;;;;;5018906;28;20022;-58
2021/11/21 04:46:14;;;;;;;4.78;4.38;;;18.00;57.20;;;;;;5018983;28;20058;-56
2021/11/21 04:48:40;;;;;;;4.15;3.78;;;18.00;57.20;;;;;;5018942;28;20368;-57
2021/11/21 04:51:06;;;;;;;4.03;3.65;;;18.00;57.20;;;;;;5018977;28;20549;-57
2021/11/21 04:53:31;;;;;;;4.63;4.22;;;17.90;57.20;;;;;;5020327;28;20551;-58
2021/11/21 04:55:57;;;;;;;4.20;3.80;;;18.00;57.20;;;;;;5019140;28;20030;-55
2021/11/21 04:58:22;;;;;;;4.40;4.00;;;17.90;57.20;;;;;;5019717;28;20812;-56
2021/11/21 05:00:48;;;;;;;4.15;3.80;;;18.00;57.20;;;;;;5017953;28;20029;-57
2021/11/21 05:03:13;;;;;;;4.35;3.97;;;17.90;57.20;;;;;;5019441;28;20064;-56
2021/11/21 05:05:39;;;;;;;4.65;4.25;;;17.90;57.20;;;;;;5000793;28;20037;-57
2021/11/21 05:08:07;;;;;;;4.22;3.92;;;17.90;57.10;;;;;;5020387;28;20049;-58
2021/11/21 05:10:32;;;;;;;4.05;3.70;;;18.00;57.20;;;;;;5007489;28;20033;-56
2021/11/21 05:12:58;;;;;;;3.95;3.55;;;18.00;57.00;;;;;;5019852;28;20570;-57
2021/11/21 05:15:25;;;;;;;5.22;3.80;;;18.10;56.90;;;;;;5000810;28;20522;-57
2021/11/21 05:17:51;;;;;;;4.47;4.07;;;18.10;56.90;;;;;;5019076;28;20506;-58
2021/11/21 05:20:17;;;;;;;4.47;4.07;;;18.20;56.80;;;;;;5017793;28;20151;-56
2021/11/21 05:22:43;;;;;;;4.18;3.78;;;18.20;56.70;;;;;;5019672;28;20411;-54
2021/11/21 05:25:09;;;;;;;5.57;3.83;;;18.20;56.70;;;;;;4986292;28;20021;-58
2021/11/21 05:27:35;;;;;;;3.97;3.67;;;18.20;56.70;;;;;;5018810;28;20535;-58
2021/11/21 05:30:01;;;;;;;4.05;3.65;;;18.30;56.80;;;;;;5004955;28;20101;-57
2021/11/21 05:32:26;;;;;;;3.95;3.65;;;18.30;56.70;;;;;;4994725;28;20030;-58
2021/11/21 05:34:53;;;;;;;3.50;3.20;;;18.30;56.80;;;;;;5000009;28;20040;-57
2021/11/21 05:37:18;;;;;;;3.55;3.25;;;18.30;56.80;;;;;;4998407;28;20029;-54
2021/11/21 05:39:44;;;;;;;4.25;3.85;;;18.30;56.80;;;;;;4971084;28;20023;-58
2021/11/21 05:42:09;;;;;;;3.50;3.20;;;18.40;57.50;;;;;;4998156;28;21026;-58
2021/11/21 05:44:35;;;;;;;4.10;3.45;;;18.30;56.80;;;;;;4982022;28;20149;-58
2021/11/21 05:47:00;;;;;;;3.53;3.22;;;18.30;57.60;;;;;;4981988;28;20038;-56
2021/11/21 05:49:26;;;;;;;3.60;3.30;;;18.30;56.80;;;;;;5018088;28;20073;-56
2021/11/21 05:51:51;;;;;;;3.83;3.53;;;18.30;56.90;;;;;;5018271;28;20406;-57
2021/11/21 05:54:17;;;;;;;4.38;3.65;;;18.30;56.90;;;;;;5018302;28;20037;-55
2021/11/21 05:56:42;;;;;;;4.63;4.00;;;18.30;56.90;;;;;;5017780;28;20041;-54
2021/11/21 05:59:08;;;;;;;4.03;3.65;;;18.30;56.90;;;;;;5018868;28;20041;-57
2021/11/21 06:01:33;;;;;;;3.35;3.05;;;18.30;56.90;;;;;;5018659;28;20542;-57
2021/11/21 06:03:59;;;;;;;4.07;3.65;;;18.30;56.80;;;;;;5019493;28;20109;-56
2021/11/21 06:06:24;;;;;;;3.70;3.40;;;18.30;56.80;;;;;;5018242;28;20025;-56
2021/11/21 06:08:50;;;;;;;3.80;3.50;;;18.30;56.80;;;;;;5018023;28;20441;-56
2021/11/21 06:11:15;;;;;;;4.47;3.45;;;18.30;56.90;;;;;;5018260;28;20025;-58
2021/11/21 06:13:43;;;;;;;4.05;3.70;;;18.30;56.80;;;;;;5018671;28;20049;-58
2021/11/21 06:16:08;;;;;;;4.00;3.70;;;18.30;56.80;;;;;;5017860;28;20104;-57
2021/11/21 06:18:34;;;;;;;4.28;3.97;;;18.30;56.70;;;;;;5019383;28;20057;-58
2021/11/21 06:20:59;;;;;;;3.80;3.50;;;18.30;56.70;;;;;;5000476;28;20025;-57
2021/11/21 06:23:25;;;;;;;4.00;3.33;;;18.40;56.70;;;;;;5000856;28;20116;-57
2021/11/21 06:25:50;;;;;;;3.70;3.28;;;18.40;56.60;;;;;;5018453;28;20045;-57
2021/11/21 06:28:18;;;;;;;4.18;3.78;;;18.30;56.60;;;;;;5021947;28;20059;-58
2021/11/21 06:30:43;;;;;;;3.85;3.28;;;18.30;56.60;;;;;;5006138;28;20028;-58
2021/11/21 06:33:08;;;;;;;4.20;3.80;;;18.30;56.60;;;;;;5022303;28;20018;-59
2021/11/21 06:35:36;;;;;;;3.97;3.67;;;18.30;56.60;;;;;;5022714;28;20390;-58
2021/11/21 06:38:01;;;;;;;4.28;3.92;;;18.30;56.60;;;;;;5021383;28;20060;-57
2021/11/21 06:40:27;;;;;;;3.97;3.65;;;18.30;56.60;;;;;;5004120;28;20293;-58
2021/11/21 06:42:52;;;;;;;3.78;3.47;;;18.30;56.60;;;;;;5021141;28;20580;-57
2021/11/21 06:45:18;;;;;;;4.32;3.92;;;18.30;56.60;;;;;;5020932;28;20041;-58
2021/11/21 06:47:43;;;;;;;4.72;4.32;;;18.30;56.60;;;;;;5021454;28;20022;-57
2021/11/21 06:50:11;;;;;;;4.43;3.83;;;18.30;56.60;;;;;;5005194;28;20045;-58
2021/11/21 06:52:36;;;;;;;3.95;3.65;;;18.20;56.50;;;;;;5021959;28;20033;-63
2021/11/21 06:55:06;;;;;;;4.68;4.28;;;18.20;56.50;;;;;;5021864;28;20037;-59
2021/11/21 06:57:33;;;;;;;4.28;3.88;;;18.20;56.50;;;;;;5021729;28;20053;-57
2021/11/21 06:59:59;;;;;;;4.35;3.95;;;18.20;56.50;;;;;;5022503;28;20029;-59
2021/11/21 07:02:25;;;;;;;4.45;4.15;;;18.20;56.50;;;;;;5022821;28;20038;-59
2021/11/21 07:04:50;;;;;;;4.15;3.72;;;18.20;56.50;;;;;;5009737;28;20041;-58
2021/11/21 07:07:16;;;;;;;4.40;4.05;;;18.20;56.50;;;;;;5015773;28;20709;-57
2021/11/21 07:09:44;;;;;;;4.30;3.90;;;18.20;56.60;;;;;;5022285;28;20530;-59
2021/11/21 07:12:10;;;;;;;5.40;4.95;;;18.20;56.60;;;;;;5003120;28;20092;-58
2021/11/21 07:14:36;;;;;;;7.18;4.60;;;18.10;56.50;;;;;;5011432;28;20125;-58
2021/11/21 07:17:02;;;;;;;4.72;4.22;;;18.20;56.50;;;;;;5002513;28;20116;-55
2021/11/21 07:19:28;;;;;;;4.95;4.15;;;18.10;56.50;;;;;;5022204;28;20026;-56
2021/11/21 07:21:53;;;;;;;4.57;4.18;;;18.10;56.50;;;;;;4984941;28;20042;-56
2021/11/21 07:24:19;;;;;;;4.43;3.85;;;18.10;56.60;;;;;;5004697;28;20040;-57
2021/11/21 07:26:44;;;;;;;4.40;4.00;;;18.10;56.60;;;;;;5020451;28;20038;-59
2021/11/21 07:29:09;;;;;;;4.30;3.75;;;18.10;56.60;;;;;;5020649;28;20025;-58
2021/11/21 07:31:35;;;;;;;4.45;4.05;;;18.10;56.70;;;;;;5021650;28;20375;-58
2021/11/21 07:34:02;;;;;;;4.38;4.00;;;18.10;56.70;;;;;;5004165;28;20029;-60
2021/11/21 07:36:27;;;;;;;4.78;4.22;;;18.10;56.80;;;;;;5003664;28;20197;-60
2021/11/21 07:38:53;;;;;;;4.53;4.13;;;18.10;56.80;;;;;;5001937;28;20654;-54
2021/11/21 07:41:18;;;;;;;4.25;3.85;;;18.10;56.70;;;;;;5020754;28;20515;-56
2021/11/21 07:43:44;;;;;;;4.63;3.78;;;18.10;56.70;;;;;;5022895;28;20025;-58
2021/11/21 07:46:09;;;;;;;4.70;4.25;;;18.00;56.80;;;;;;5021744;28;20037;-58
2021/11/21 07:48:35;;;;;;;4.65;4.20;;;18.00;56.80;;;;;;5022089;28;20591;-56
2021/11/21 07:51:01;;;;;;;6.32;4.70;;;18.00;56.90;;;;;;5002484;28;20033;-57
2021/11/21 07:53:26;;;;;;;5.25;3.90;;;18.00;56.90;;;;;;5021757;28;20137;-58
2021/11/21 07:55:52;;;;;;;4.15;3.72;;;18.00;56.80;;;;;;5003106;28;20566;-57
2021/11/21 07:58:18;;;;;;;7.35;4.38;;;18.10;56.90;;;;;;5020912;28;20487;-57
2021/11/21 08:00:43;;;;;;;5.43;4.55;;;18.00;56.90;;;;;;5020485;28;20107;-59
2021/11/21 08:03:09;;;;;;;9.45;4.43;;;18.10;57.00;;;;;;5022021;28;20387;-57
2021/11/21 08:05:34;;;;;;;4.75;4.30;;;18.00;57.00;;;;;;5003764;28;20037;-58
2021/11/21 08:08:00;;;;;;;5.25;3.83;;;18.00;56.90;;;;;;5022034;28;20039;-58
2021/11/21 08:10:25;;;;;;;6.55;4.15;;;18.00;57.00;;;;;;5019893;28;20026;-58
2021/11/21 08:12:51;;;;;;;4.82;4.22;;;18.00;57.40;;;;;;5020590;28;20884;-59
2021/11/21 08:15:16;;;;;;;6.22;4.07;;;17.90;57.60;;;;;;5021405;28;20096;-60
2021/11/21 08:17:42;;;;;;;6.85;4.07;;;17.90;58.10;;;;;;5021414;28;20542;-59
2021/11/21 08:20:08;;;;;;;7.70;3.92;;;17.90;58.60;;;;;;5020931;28;20045;-65
2021/11/21 08:22:34;;;;;;;9.25;4.65;;;17.90;58.60;;;;;;5020849;28;20108;-59
2021/11/21 08:24:59;;;;;;;11.43;4.80;;;17.90;58.30;;;;;;5021364;28;20133;-58
2021/11/21 08:27:25;;;;;;;8.45;4.43;;;17.90;58.20;;;;;;5003337;28;20041;-58
2021/11/21 08:29:50;;;;;;;6.30;4.47;;;17.90;58.70;;;;;;5003513;28;20038;-58
2021/11/21 08:32:17;;;;;;;7.43;4.22;;;17.90;57.90;;;;;;5020179;28;20554;-60
2021/11/21 08:34:44;;;;;;;4.70;4.20;;;17.90;57.90;;;;;;5019838;28;20156;-58
2021/11/21 08:37:10;;;;;;;9.27;4.65;;;17.90;57.80;;;;;;5020885;28;20037;-59
2021/11/21 08:39:35;;;;;;;11.50;4.78;;;17.90;57.70;;;;;;5019583;28;20036;-57
2021/11/21 08:42:01;;;;;;;4.53;3.90;;;18.00;57.60;;;;;;5020665;28;20108;-58
2021/11/21 08:44:27;;;;;;;5.82;4.10;;;18.00;57.50;;;;;;5021313;28;20025;-59
2021/11/21 08:46:52;;;;;;;10.85;4.65;;;18.00;57.40;;;;;;5020207;28;20130;-58
2021/11/21 08:49:18;;;;;;;7.38;3.80;;;18.10;57.30;;;;;;5020742;28;20078;-58
2021/11/21 08:51:43;;;;;;;6.78;4.65;;;18.10;57.10;;;;;;5019182;28;20029;-58
2021/11/21 08:54:09;;;;;;;58.42;31.35;;;18.20;57.20;;;;;;5017250;28;20602;-57
2021/11/21 08:56:35;;;;;;;108.45;53.72;;;18.20;58.20;;;;;;5006014;28;20038;-58
2021/11/21 08:59:02;;;;;;;124.63;59.70;;;18.30;58.50;;;;;;5018883;28;20040;-59
2021/11/21 09:01:28;;;;;;;118.55;57.85;;;18.40;58.70;;;;;;5021033;28;20037;-59
2021/11/21 09:03:53;;;;;;;112.57;57.88;;;18.40;58.60;;;;;;5020924;28;20037;-56
2021/11/21 09:06:19;;;;;;;116.88;53.72;;;18.40;58.50;;;;;;5019480;28;20806;-59
2021/11/21 09:08:44;;;;;;;93.47;49.42;;;18.40;58.60;;;;;;5019386;28;20037;-56
2021/11/21 09:11:10;;;;;;;84.95;44.25;;;18.40;58.40;;;;;;5021273;28;20030;-59
2021/11/21 09:13:35;;;;;;;70.55;36.92;;;18.40;58.40;;;;;;5022252;28;20032;-58
2021/11/21 09:16:01;;;;;;;61.50;31.65;;;18.40;58.30;;;;;;5021535;28;20092;-58
2021/11/21 09:18:27;;;;;;;48.63;26.08;;;18.40;58.00;;;;;;5021121;28;20076;-56
2021/11/21 09:20:53;;;;;;;47.55;23.15;;;18.40;57.80;;;;;;5019764;28;20072;-59
2021/11/21 09:23:19;;;;;;;42.40;21.58;;;18.40;57.80;;;;;;5004534;28;20037;-57
2021/11/21 09:25:45;;;;;;;36.65;19.05;;;18.40;57.60;;;;;;5022493;28;20030;-59
2021/11/21 09:28:10;;;;;;;33.83;17.48;;;18.40;57.30;;;;;;5022087;28;20041;-56
2021/11/21 09:30:36;;;;;;;31.27;15.82;;;18.40;57.20;;;;;;4988332;28;20026;-61
2021/11/21 09:33:01;;;;;;;29.73;15.70;;;18.40;57.20;;;;;;5023243;28;20048;-57
2021/11/21 09:35:27;;;;;;;22.38;14.10;;;18.40;57.10;;;;;;5022309;28;20108;-60
2021/11/21 09:37:52;;;;;;;20.60;12.52;;;18.40;56.80;;;;;;5023050;28;20025;-59
2021/11/21 09:40:18;;;;;;;23.08;11.65;;;18.40;56.50;;;;;;5022646;28;20446;-60
2021/11/21 09:42:43;;;;;;;15.75;10.88;;;18.40;56.50;;;;;;5022936;28;20026;-59
2021/11/21 09:45:10;;;;;;;17.35;11.10;;;18.30;56.40;;;;;;5006129;28;20030;-60
2021/11/21 09:47:36;;;;;;;13.88;10.43;;;18.30;56.20;;;;;;5022344;28;20595;-58
2021/11/21 09:50:07;;;;;;;14.30;10.05;;;18.30;56.10;;;;;;5023089;28;20036;-59
2021/11/21 09:52:32;;;;;;;11.88;9.55;;;18.30;55.70;;;;;;5023032;28;20037;-57
2021/11/21 09:54:58;;;;;;;12.73;9.65;;;18.30;55.60;;;;;;5023015;28;20033;-60
2021/11/21 09:57:24;;;;;;;10.48;8.63;;;18.30;55.70;;;;;;5005432;28;20030;-58
2021/11/21 09:59:59;;;;;;;10.13;8.85;;;18.30;55.30;;;;;;5022380;28;20156;-58
2021/11/21 10:02:30;;;;;;;13.18;9.30;;;18.30;55.30;;;;;;5006212;28;20537;-59
2021/11/21 10:04:55;;;;;;;11.13;8.73;;;18.30;55.40;;;;;;5014426;28;20711;-59
2021/11/21 10:07:21;;;;;;;9.52;7.85;;;18.30;55.10;;;;;;4998679;28;20064;-58
2021/11/21 10:09:47;;;;;;;9.75;7.85;;;18.30;55.00;;;;;;5019872;28;20124;-59
2021/11/21 10:12:13;;;;;;;11.20;8.50;;;18.30;54.70;;;;;;5020161;28;20133;-57
2021/11/21 10:14:57;;;;;;;10.32;8.63;;;18.30;54.50;;;;;;5021753;28;20029;-58
2021/11/21 10:17:25;;;;;;;9.65;7.68;;;18.30;54.30;;;;;;5018258;28;20037;-58
2021/11/21 10:20:06;;;;;;;12.15;8.15;;;18.30;53.90;;;;;;5022030;28;20053;-58
2021/11/21 10:22:50;;;;;;;11.50;7.70;;;18.30;53.80;;;;;;5020691;28;20037;-57
2021/11/21 10:25:35;;;;;;;10.95;7.28;;;18.20;53.50;;;;;;5023055;28;20655;-58
2021/11/21 10:28:23;;;;;;;8.88;7.35;;;18.20;53.40;;;;;;5034895;23;20049;-62
2021/11/21 10:31:15;;;;;;;10.15;7.85;;;18.20;52.80;;;;;;5023553;28;20022;-61
2021/11/21 10:33:45;;;;;;;9.07;7.57;;;18.20;52.10;;;;;;5021164;28;20091;-62
2021/11/21 10:36:19;;;;;;;9.52;7.43;;;18.20;52.10;;;;;;5008160;28;20395;-61
2021/11/21 10:38:47;;;;;;;9.55;7.10;;;18.20;51.70;;;;;;5024934;28;20017;-61
2021/11/21 10:41:21;;;;;;;9.07;7.40;;;18.20;51.80;;;;;;5025852;28;20022;-61
2021/11/21 10:43:54;;;;;;;7.65;6.38;;;18.10;52.00;;;;;;5026127;28;20029;-61
2021/11/21 10:46:57;;;;;;;9.40;6.60;;;18.10;52.00;;;;;;5026017;28;20608;-61
2021/11/21 10:49:32;;;;;;;8.23;7.43;;;18.10;52.40;;;;;;5010767;28;20120;-61
2021/11/21 10:51:58;;;;;;;7.63;5.65;;;18.00;52.30;;;;;;5026277;28;20021;-62
2021/11/21 10:54:36;;;;;;;6.65;5.65;;;18.00;52.40;;;;;;5009484;28;20030;-61
2021/11/21 10:57:07;;;;;;;6.03;4.90;;;18.00;52.50;;;;;;4984652;28;20025;-61
2021/11/21 10:59:50;;;;;;;6.57;5.32;;;18.00;52.60;;;;;;5025200;28;20021;-62
2021/11/21 11:02:38;;;;;;;5.57;4.78;;;18.00;52.80;;;;;;5026197;28;20079;-61
2021/11/21 11:05:19;;;;;;;6.47;4.53;;;18.00;52.90;;;;;;5025536;28;20025;-61
2021/11/21 11:07:52;;;;;;;6.75;5.20;;;17.90;53.20;;;;;;5022782;28;20643;-61
2021/11/21 11:10:20;;;;;;;6.22;5.63;;;17.90;53.80;;;;;;5025844;28;20025;-60
2021/11/21 11:12:48;;;;;;;5.93;3.80;;;17.90;54.10;;;;;;5027121;28;20117;-61
2021/11/21 11:15:14;;;;;;;4.03;3.58;;;17.90;54.50;;;;;;5030242;28;20025;-61
2021/11/21 11:17:39;;;;;;;4.07;3.63;;;17.90;54.80;;;;;;5030506;28;20041;-61
2021/11/21 11:20:10;;;;;;;7.32;3.65;;;17.80;55.10;;;;;;5029776;28;20437;-61
2021/11/21 11:22:37;;;;;;;6.68;3.67;;;17.90;55.40;;;;;;5030029;28;20029;-61
2021/11/21 11:25:05;;;;;;;3.60;3.25;;;17.80;55.60;;;;;;5016004;28;20018;-58
2021/11/21 11:27:53;;;;;;;4.95;3.53;;;17.80;55.80;;;;;;5020649;28;20049;-61
2021/11/21 11:30:29;;;;;;;3.97;3.10;;;17.80;55.90;;;;;;5010401;28;20164;-62
2021/11/21 11:33:21;;;;;;;5.20;3.42;;;17.90;56.00;;;;;;5012907;28;20032;-62
2021/11/21 11:35:48;;;;;;;7.40;3.83;;;17.90;56.20;;;;;;5012114;28;20053;-61
2021/11/21 11:38:25;;;;;;;4.90;3.63;;;17.90;56.40;;;;;;5029319;28;20076;-61
2021/11/21 11:40:57;;;;;;;6.40;3.72;;;18.00;56.20;;;;;;5027995;28;20032;-61
2021/11/21 11:43:47;;;;;;;3.67;3.33;;;18.00;56.70;;;;;;5010375;28;20043;-61
2021/11/21 11:46:19;;;;;;;6.70;3.80;;;18.00;56.10;;;;;;5028239;28;20103;-62
2021/11/21 11:48:56;;;;;;;4.47;3.35;;;18.00;55.90;;;;;;5023638;28;20052;-62
2021/11/21 11:51:27;;;;;;;4.65;3.90;;;18.00;55.90;;;;;;5028396;28;20018;-63
2021/11/21 11:53:57;;;;;;;4.25;3.83;;;18.00;55.90;;;;;;5027788;28;20022;-61
2021/11/21 11:56:30;;;;;;;9.77;5.90;;;18.00;55.90;;;;;;5028352;28;20072;-62
2021/11/21 11:59:00;;;;;;;13.85;7.15;;;18.00;56.00;;;;;;5027882;28;20464;-62
2021/11/21 12:01:42;;;;;;;13.40;6.85;;;18.00;56.00;;;;;;5027547;28;20544;-61
2021/11/21 12:04:08;;;;;;;16.50;6.90;;;18.10;56.10;;;;;;5027643;28;20024;-62
2021/11/21 12:06:41;;;;;;;11.52;7.72;;;18.10;56.20;;;;;;5028010;28;20048;-63
2021/11/21 12:09:19;;;;;;;12.70;7.00;;;18.00;56.20;;;;;;5027942;28;20025;-61
2021/11/21 12:12:01;;;;;;;13.10;7.50;;;18.10;56.30;;;;;;5025084;28;20037;-64
2021/11/21 12:14:34;;;;;;;13.90;7.95;;;18.10;56.20;;;;;;5003772;28;20029;-62
2021/11/21 12:17:10;;;;;;;12.50;7.05;;;18.10;56.10;;;;;;5028282;28;20446;-62
2021/11/21 12:19:48;;;;;;;12.32;7.57;;;18.10;56.10;;;;;;5028805;28;20480;-62
2021/11/21 12:22:30;;;;;;;13.85;6.97;;;18.10;56.00;;;;;;4993788;28;20056;-62
2021/11/21 12:25:09;;;;;;;10.63;6.43;;;18.10;56.30;;;;;;5027410;28;20032;-62
2021/11/21 12:27:41;;;;;;;10.55;6.13;;;18.10;56.50;;;;;;5027655;28;20492;-62
2021/11/21 12:30:22;;;;;;;10.80;5.82;;;18.20;56.80;;;;;;5028023;28;20026;-62
2021/11/21 12:32:49;;;;;;;12.52;6.18;;;18.20;57.00;;;;;;5010447;28;20109;-63
2021/11/21 12:35:25;;;;;;;10.60;5.75;;;18.20;57.20;;;;;;5028449;28;20607;-63
2021/11/21 12:37:52;;;;;;;9.50;5.18;;;18.20;57.40;;;;;;5029617;28;20071;-62
2021/11/21 12:40:18;;;;;;;9.40;5.03;;;18.20;57.50;;;;;;5011251;28;20026;-62
2021/11/21 12:42:44;;;;;;;8.15;5.50;;;18.20;57.60;;;;;;5011736;28;20027;-63
2021/11/21 12:45:14;;;;;;;7.82;4.38;;;18.20;57.90;;;;;;5029044;28;20029;-63